sensor_id;sensor_type;location;lat;lon;timestamp;P1;durP1;ratioP1;P2;durP2;ratioP2
27383;SDS011;14851;51.166;4.760;2022-07-25T00:00:14;3.58;;;3.25;;
27383;SDS011;14851;51.166;4.760;2022-07-25T00:02:41;9.38;;;4.40;;
27383;SDS011;14851;51.166;4.760;2022-07-25T00:05:10;5.60;;;5.00;;
27383;SDS011;14851;51.166;4.760;2022-07-25T00:07:37;9.55;;;5.20;;
27383;SDS011;14851;51.166;4.760;2022-07-25T00:10:06;6.85;;;4.85;;
27383;SDS011;14851;51.166;4.760;2022-07-25T00:12:35;10.30;;;5.05;;
27383;SDS011;14851;51.166;4.760;2022-07-25T00:15:02;7.32;;;4.80;;
27383;SDS011;14851;51.166;4.760;2022-07-25T00:17:30;6.97;;;5.28;;
27383;SDS011;14851;51.166;4.760;2022-07-25T00:19:56;6.07;;;4.05;;
27383;SDS011;14851;51.166;4.760;2022-07-25T00:22:22;7.18;;;4.63;;
27383;SDS011;14851;51.166;4.760;2022-07-25T00:24:48;7.15;;;5.32;;
27383;SDS011;14851;51.166;4.760;2022-07-25T00:27:15;5.25;;;4.75;;
27383;SDS011;14851;51.166;4.760;2022-07-25T00:29:41;7.35;;;4.82;;
27383;SDS011;14851;51.166;4.760;2022-07-25T00:32:08;5.38;;;4.88;;
27383;SDS011;14851;51.166;4.760;2022-07-25T00:34:34;20.73;;;5.85;;
27383;SDS011;14851;51.166;4.760;2022-07-25T00:37:00;5.53;;;4.88;;
27383;SDS011;14851;51.166;4.760;2022-07-25T00:39:26;6.97;;;4.72;;
27383;SDS011;14851;51.166;4.760;2022-07-25T00:41:53;6.20;;;4.82;;
27383;SDS011;14851;51.166;4.760;2022-07-25T00:46:55;8.43;;;5.07;;
27383;SDS011;14851;51.166;4.760;2022-07-25T00:49:21;9.23;;;4.90;;
27383;SDS011;14851;51.166;4.760;2022-07-25T00:51:48;7.60;;;5.07;;
27383;SDS011;14851;51.166;4.760;2022-07-25T00:54:14;7.03;;;4.72;;
27383;SDS011;14851;51.166;4.760;2022-07-25T00:56:40;7.75;;;5.63;;
27383;SDS011;14851;51.166;4.760;2022-07-25T00:59:09;7.60;;;4.32;;
27383;SDS011;14851;51.166;4.760;2022-07-25T01:01:36;8.05;;;5.07;;
27383;SDS011;14851;51.166;4.760;2022-07-25T01:04:04;8.43;;;4.88;;
27383;SDS011;14851;51.166;4.760;2022-07-25T01:06:32;7.28;;;5.05;;
27383;SDS011;14851;51.166;4.760;2022-07-25T01:09:00;6.03;;;4.78;;
27383;SDS011;14851;51.166;4.760;2022-07-25T01:11:26;6.78;;;5.07;;
27383;SDS011;14851;51.166;4.760;2022-07-25T01:13:52;5.50;;;4.93;;
27383;SDS011;14851;51.166;4.760;2022-07-25T01:16:19;6.60;;;4.95;;
27383;SDS011;14851;51.166;4.760;2022-07-25T01:18:44;6.20;;;4.97;;
27383;SDS011;14851;51.166;4.760;2022-07-25T01:21:10;6.50;;;5.18;;
27383;SDS011;14851;51.166;4.760;2022-07-25T01:23:36;5.40;;;4.90;;
27383;SDS011;14851;51.166;4.760;2022-07-25T01:26:02;5.85;;;5.22;;
27383;SDS011;14851;51.166;4.760;2022-07-25T01:28:28;6.00;;;4.95;;
27383;SDS011;14851;51.166;4.760;2022-07-25T01:30:54;5.60;;;5.10;;
27383;SDS011;14851;51.166;4.760;2022-07-25T01:33:20;5.78;;;5.07;;
27383;SDS011;14851;51.166;4.760;2022-07-25T01:35:47;5.90;;;5.30;;
27383;SDS011;14851;51.166;4.760;2022-07-25T01:38:13;6.35;;;5.35;;
27383;SDS011;14851;51.166;4.760;2022-07-25T01:40:40;7.25;;;5.35;;
27383;SDS011;14851;51.166;4.760;2022-07-25T01:43:07;5.90;;;5.30;;
27383;SDS011;14851;51.166;4.760;2022-07-25T01:45:33;6.43;;;5.70;;
27383;SDS011;14851;51.166;4.760;2022-07-25T01:47:59;5.55;;;5.05;;
27383;SDS011;14851;51.166;4.760;2022-07-25T01:50:27;7.60;;;5.88;;
27383;SDS011;14851;51.166;4.760;2022-07-25T01:52:54;5.90;;;5.18;;
27383;SDS011;14851;51.166;4.760;2022-07-25T01:55:20;6.22;;;4.97;;
27383;SDS011;14851;51.166;4.760;2022-07-25T01:57:53;5.78;;;4.90;;
27383;SDS011;14851;51.166;4.760;2022-07-25T02:00:19;6.70;;;6.03;;
27383;SDS011;14851;51.166;4.760;2022-07-25T02:02:45;6.68;;;4.75;;
27383;SDS011;14851;51.166;4.760;2022-07-25T02:05:13;8.23;;;5.28;;
27383;SDS011;14851;51.166;4.760;2022-07-25T02:07:39;5.68;;;4.85;;
27383;SDS011;14851;51.166;4.760;2022-07-25T02:10:05;7.15;;;5.03;;
27383;SDS011;14851;51.166;4.760;2022-07-25T02:12:32;6.63;;;5.47;;
27383;SDS011;14851;51.166;4.760;2022-07-25T02:14:58;6.50;;;5.22;;
27383;SDS011;14851;51.166;4.760;2022-07-25T02:17:25;5.78;;;4.75;;
27383;SDS011;14851;51.166;4.760;2022-07-25T02:19:56;5.43;;;4.80;;
27383;SDS011;14851;51.166;4.760;2022-07-25T02:22:22;5.88;;;5.28;;
27383;SDS011;14851;51.166;4.760;2022-07-25T02:24:48;7.40;;;5.50;;
27383;SDS011;14851;51.166;4.760;2022-07-25T02:27:14;9.98;;;5.70;;
27383;SDS011;14851;51.166;4.760;2022-07-25T02:29:39;6.05;;;5.22;;
27383;SDS011;14851;51.166;4.760;2022-07-25T02:32:06;5.30;;;4.70;;
27383;SDS011;14851;51.166;4.760;2022-07-25T02:34:32;6.15;;;5.47;;
27383;SDS011;14851;51.166;4.760;2022-07-25T02:37:00;8.30;;;5.50;;
27383;SDS011;14851;51.166;4.760;2022-07-25T02:39:26;7.15;;;5.25;;
27383;SDS011;14851;51.166;4.760;2022-07-25T02:41:53;5.88;;;5.28;;
27383;SDS011;14851;51.166;4.760;2022-07-25T02:44:19;7.30;;;5.00;;
27383;SDS011;14851;51.166;4.760;2022-07-25T02:46:46;6.95;;;5.20;;
27383;SDS011;14851;51.166;4.760;2022-07-25T02:49:12;7.20;;;5.43;;
27383;SDS011;14851;51.166;4.760;2022-07-25T02:51:38;6.45;;;5.63;;
27383;SDS011;14851;51.166;4.760;2022-07-25T02:54:04;5.85;;;5.25;;
27383;SDS011;14851;51.166;4.760;2022-07-25T02:56:34;6.93;;;5.57;;
27383;SDS011;14851;51.166;4.760;2022-07-25T02:58:59;8.18;;;5.75;;
27383;SDS011;14851;51.166;4.760;2022-07-25T03:01:25;6.38;;;5.32;;
27383;SDS011;14851;51.166;4.760;2022-07-25T03:03:55;8.15;;;5.72;;
27383;SDS011;14851;51.166;4.760;2022-07-25T03:06:21;8.23;;;5.82;;
27383;SDS011;14851;51.166;4.760;2022-07-25T03:08:48;8.27;;;5.40;;
27383;SDS011;14851;51.166;4.760;2022-07-25T03:11:14;7.03;;;5.47;;
27383;SDS011;14851;51.166;4.760;2022-07-25T03:13:41;8.38;;;5.80;;
27383;SDS011;14851;51.166;4.760;2022-07-25T03:16:07;6.00;;;5.00;;
27383;SDS011;14851;51.166;4.760;2022-07-25T03:18:33;8.50;;;5.68;;
27383;SDS011;14851;51.166;4.760;2022-07-25T03:20:59;9.02;;;6.20;;
27383;SDS011;14851;51.166;4.760;2022-07-25T03:23:25;6.30;;;5.50;;
27383;SDS011;14851;51.166;4.760;2022-07-25T03:25:52;9.40;;;5.85;;
27383;SDS011;14851;51.166;4.760;2022-07-25T03:28:18;6.70;;;5.68;;
27383;SDS011;14851;51.166;4.760;2022-07-25T03:30:44;8.20;;;5.78;;
27383;SDS011;14851;51.166;4.760;2022-07-25T03:33:12;5.93;;;5.28;;
27383;SDS011;14851;51.166;4.760;2022-07-25T03:35:38;6.25;;;5.65;;
27383;SDS011;14851;51.166;4.760;2022-07-25T03:38:04;8.77;;;6.15;;
27383;SDS011;14851;51.166;4.760;2022-07-25T03:40:29;6.65;;;5.95;;
27383;SDS011;14851;51.166;4.760;2022-07-25T03:42:56;7.25;;;5.45;;
27383;SDS011;14851;51.166;4.760;2022-07-25T03:45:23;8.50;;;5.72;;
27383;SDS011;14851;51.166;4.760;2022-07-25T03:47:51;6.88;;;6.20;;
27383;SDS011;14851;51.166;4.760;2022-07-25T03:50:19;6.97;;;6.28;;
27383;SDS011;14851;51.166;4.760;2022-07-25T03:52:45;7.75;;;5.78;;
27383;SDS011;14851;51.166;4.760;2022-07-25T03:55:11;6.10;;;5.50;;
27383;SDS011;14851;51.166;4.760;2022-07-25T03:57:37;6.50;;;5.90;;
27383;SDS011;14851;51.166;4.760;2022-07-25T04:00:06;6.13;;;5.32;;
27383;SDS011;14851;51.166;4.760;2022-07-25T04:02:34;8.95;;;5.78;;
27383;SDS011;14851;51.166;4.760;2022-07-25T04:05:02;6.07;;;5.50;;
27383;SDS011;14851;51.166;4.760;2022-07-25T04:07:32;8.48;;;5.85;;
27383;SDS011;14851;51.166;4.760;2022-07-25T04:09:58;7.57;;;5.57;;
27383;SDS011;14851;51.166;4.760;2022-07-25T04:12:29;6.22;;;5.53;;
27383;SDS011;14851;51.166;4.760;2022-07-25T04:14:56;6.65;;;5.50;;
27383;SDS011;14851;51.166;4.760;2022-07-25T04:17:24;6.32;;;5.05;;
27383;SDS011;14851;51.166;4.760;2022-07-25T04:19:52;8.30;;;6.25;;
27383;SDS011;14851;51.166;4.760;2022-07-25T04:22:19;6.13;;;5.53;;
27383;SDS011;14851;51.166;4.760;2022-07-25T04:24:46;6.38;;;5.50;;
27383;SDS011;14851;51.166;4.760;2022-07-25T04:27:13;6.00;;;5.28;;
27383;SDS011;14851;51.166;4.760;2022-07-25T04:29:39;6.78;;;5.35;;
27383;SDS011;14851;51.166;4.760;2022-07-25T04:32:05;8.43;;;5.70;;
27383;SDS011;14851;51.166;4.760;2022-07-25T04:34:37;6.65;;;5.88;;
27383;SDS011;14851;51.166;4.760;2022-07-25T04:37:03;9.23;;;6.15;;
27383;SDS011;14851;51.166;4.760;2022-07-25T04:39:30;9.68;;;6.25;;
27383;SDS011;14851;51.166;4.760;2022-07-25T04:41:56;8.10;;;6.15;;
27383;SDS011;14851;51.166;4.760;2022-07-25T04:44:24;8.25;;;5.60;;
27383;SDS011;14851;51.166;4.760;2022-07-25T04:46:50;8.23;;;6.40;;
27383;SDS011;14851;51.166;4.760;2022-07-25T04:49:17;11.68;;;6.18;;
27383;SDS011;14851;51.166;4.760;2022-07-25T04:51:42;8.45;;;5.95;;
27383;SDS011;14851;51.166;4.760;2022-07-25T04:54:08;8.02;;;5.90;;
27383;SDS011;14851;51.166;4.760;2022-07-25T04:56:35;7.53;;;5.93;;
27383;SDS011;14851;51.166;4.760;2022-07-25T04:59:02;7.32;;;5.82;;
27383;SDS011;14851;51.166;4.760;2022-07-25T05:03:58;7.32;;;5.97;;
27383;SDS011;14851;51.166;4.760;2022-07-25T05:06:24;7.70;;;5.90;;
27383;SDS011;14851;51.166;4.760;2022-07-25T05:08:53;7.85;;;5.40;;
27383;SDS011;14851;51.166;4.760;2022-07-25T05:11:20;8.98;;;5.22;;
27383;SDS011;14851;51.166;4.760;2022-07-25T05:13:45;6.70;;;4.55;;
27383;SDS011;14851;51.166;4.760;2022-07-25T05:16:11;5.72;;;4.57;;
27383;SDS011;14851;51.166;4.760;2022-07-25T05:18:37;5.00;;;3.75;;
27383;SDS011;14851;51.166;4.760;2022-07-25T05:21:03;5.35;;;3.38;;
27383;SDS011;14851;51.166;4.760;2022-07-25T05:23:32;5.07;;;3.55;;
27383;SDS011;14851;51.166;4.760;2022-07-25T05:25:58;7.07;;;3.70;;
27383;SDS011;14851;51.166;4.760;2022-07-25T05:28:25;3.92;;;2.80;;
27383;SDS011;14851;51.166;4.760;2022-07-25T05:30:51;6.25;;;2.30;;
27383;SDS011;14851;51.166;4.760;2022-07-25T05:33:17;8.10;;;3.42;;
27383;SDS011;14851;51.166;4.760;2022-07-25T05:35:43;6.10;;;3.05;;
27383;SDS011;14851;51.166;4.760;2022-07-25T05:38:10;5.00;;;2.40;;
27383;SDS011;14851;51.166;4.760;2022-07-25T05:40:38;3.60;;;2.40;;
27383;SDS011;14851;51.166;4.760;2022-07-25T05:43:04;3.85;;;2.63;;
27383;SDS011;14851;51.166;4.760;2022-07-25T05:45:30;4.57;;;2.60;;
27383;SDS011;14851;51.166;4.760;2022-07-25T05:47:57;9.20;;;3.30;;
27383;SDS011;14851;51.166;4.760;2022-07-25T05:50:23;5.22;;;2.40;;
27383;SDS011;14851;51.166;4.760;2022-07-25T05:52:50;12.10;;;3.38;;
27383;SDS011;14851;51.166;4.760;2022-07-25T05:55:19;6.53;;;2.85;;
27383;SDS011;14851;51.166;4.760;2022-07-25T05:57:45;4.43;;;2.53;;
27383;SDS011;14851;51.166;4.760;2022-07-25T06:00:12;4.53;;;2.70;;
27383;SDS011;14851;51.166;4.760;2022-07-25T06:02:40;7.13;;;2.80;;
27383;SDS011;14851;51.166;4.760;2022-07-25T06:05:07;6.30;;;2.42;;
27383;SDS011;14851;51.166;4.760;2022-07-25T06:07:33;6.55;;;2.95;;
27383;SDS011;14851;51.166;4.760;2022-07-25T06:09:58;5.80;;;2.65;;
27383;SDS011;14851;51.166;4.760;2022-07-25T06:12:25;3.72;;;2.22;;
27383;SDS011;14851;51.166;4.760;2022-07-25T06:14:51;6.63;;;2.90;;
27383;SDS011;14851;51.166;4.760;2022-07-25T06:17:17;5.45;;;2.03;;
27383;SDS011;14851;51.166;4.760;2022-07-25T06:19:44;4.20;;;2.20;;
27383;SDS011;14851;51.166;4.760;2022-07-25T06:22:10;7.53;;;2.72;;
27383;SDS011;14851;51.166;4.760;2022-07-25T06:24:37;6.43;;;2.88;;
27383;SDS011;14851;51.166;4.760;2022-07-25T06:27:05;6.25;;;2.78;;
27383;SDS011;14851;51.166;4.760;2022-07-25T06:29:31;5.63;;;2.80;;
27383;SDS011;14851;51.166;4.760;2022-07-25T06:31:57;7.07;;;2.90;;
27383;SDS011;14851;51.166;4.760;2022-07-25T06:34:24;8.50;;;2.40;;
27383;SDS011;14851;51.166;4.760;2022-07-25T06:36:53;9.00;;;2.92;;
27383;SDS011;14851;51.166;4.760;2022-07-25T06:39:20;6.28;;;2.10;;
27383;SDS011;14851;51.166;4.760;2022-07-25T06:41:45;11.52;;;2.85;;
27383;SDS011;14851;51.166;4.760;2022-07-25T06:44:16;7.95;;;2.83;;
27383;SDS011;14851;51.166;4.760;2022-07-25T06:46:42;5.30;;;2.40;;
27383;SDS011;14851;51.166;4.760;2022-07-25T06:49:08;9.98;;;2.85;;
27383;SDS011;14851;51.166;4.760;2022-07-25T06:51:35;7.38;;;2.53;;
27383;SDS011;14851;51.166;4.760;2022-07-25T06:54:01;4.47;;;2.30;;
27383;SDS011;14851;51.166;4.760;2022-07-25T06:56:28;9.20;;;1.92;;
27383;SDS011;14851;51.166;4.760;2022-07-25T06:58:56;5.57;;;2.17;;
27383;SDS011;14851;51.166;4.760;2022-07-25T07:01:22;3.38;;;2.25;;
27383;SDS011;14851;51.166;4.760;2022-07-25T07:03:48;7.70;;;2.17;;
27383;SDS011;14851;51.166;4.760;2022-07-25T07:06:14;4.93;;;2.15;;
27383;SDS011;14851;51.166;4.760;2022-07-25T07:08:42;7.43;;;2.33;;
27383;SDS011;14851;51.166;4.760;2022-07-25T07:11:11;10.07;;;2.55;;
27383;SDS011;14851;51.166;4.760;2022-07-25T07:13:39;5.20;;;2.40;;
27383;SDS011;14851;51.166;4.760;2022-07-25T07:16:05;8.35;;;2.03;;
27383;SDS011;14851;51.166;4.760;2022-07-25T07:18:32;7.22;;;2.28;;
27383;SDS011;14851;51.166;4.760;2022-07-25T07:20:58;5.68;;;2.55;;
27383;SDS011;14851;51.166;4.760;2022-07-25T07:23:24;7.60;;;2.53;;
27383;SDS011;14851;51.166;4.760;2022-07-25T07:25:51;9.07;;;2.88;;
27383;SDS011;14851;51.166;4.760;2022-07-25T07:28:17;3.95;;;2.10;;
27383;SDS011;14851;51.166;4.760;2022-07-25T07:30:44;7.25;;;2.10;;
27383;SDS011;14851;51.166;4.760;2022-07-25T07:33:10;6.25;;;2.33;;
27383;SDS011;14851;51.166;4.760;2022-07-25T07:35:35;4.65;;;2.30;;
27383;SDS011;14851;51.166;4.760;2022-07-25T07:38:01;6.05;;;2.38;;
27383;SDS011;14851;51.166;4.760;2022-07-25T07:40:28;4.80;;;2.45;;
27383;SDS011;14851;51.166;4.760;2022-07-25T07:42:55;9.43;;;3.13;;
27383;SDS011;14851;51.166;4.760;2022-07-25T07:45:23;4.20;;;1.88;;
27383;SDS011;14851;51.166;4.760;2022-07-25T07:47:52;6.20;;;2.13;;
27383;SDS011;14851;51.166;4.760;2022-07-25T07:50:23;4.90;;;2.20;;
27383;SDS011;14851;51.166;4.760;2022-07-25T07:52:51;5.88;;;2.40;;
27383;SDS011;14851;51.166;4.760;2022-07-25T07:55:18;6.10;;;2.58;;
27383;SDS011;14851;51.166;4.760;2022-07-25T07:58:03;4.75;;;1.80;;
27383;SDS011;14851;51.166;4.760;2022-07-25T08:00:33;3.42;;;1.77;;
27383;SDS011;14851;51.166;4.760;2022-07-25T08:03:00;8.27;;;1.90;;
27383;SDS011;14851;51.166;4.760;2022-07-25T08:07:54;10.90;;;2.45;;
27383;SDS011;14851;51.166;4.760;2022-07-25T08:10:22;4.85;;;1.88;;
27383;SDS011;14851;51.166;4.760;2022-07-25T08:12:56;7.05;;;2.15;;
27383;SDS011;14851;51.166;4.760;2022-07-25T08:15:26;5.05;;;2.92;;
27383;SDS011;14851;51.166;4.760;2022-07-25T08:17:55;4.60;;;1.70;;
27383;SDS011;14851;51.166;4.760;2022-07-25T08:20:21;8.48;;;2.47;;
27383;SDS011;14851;51.166;4.760;2022-07-25T08:22:48;10.93;;;2.67;;
27383;SDS011;14851;51.166;4.760;2022-07-25T08:25:16;6.20;;;2.22;;
27383;SDS011;14851;51.166;4.760;2022-07-25T08:27:47;6.05;;;2.35;;
27383;SDS011;14851;51.166;4.760;2022-07-25T08:30:14;4.90;;;2.08;;
27383;SDS011;14851;51.166;4.760;2022-07-25T08:32:50;10.82;;;2.70;;
27383;SDS011;14851;51.166;4.760;2022-07-25T08:35:29;5.25;;;2.13;;
27383;SDS011;14851;51.166;4.760;2022-07-25T08:37:56;6.75;;;2.63;;
27383;SDS011;14851;51.166;4.760;2022-07-25T08:40:25;8.02;;;2.53;;
27383;SDS011;14851;51.166;4.760;2022-07-25T08:42:55;10.85;;;3.58;;
27383;SDS011;14851;51.166;4.760;2022-07-25T08:45:22;7.00;;;2.40;;
27383;SDS011;14851;51.166;4.760;2022-07-25T08:47:51;5.22;;;1.80;;
27383;SDS011;14851;51.166;4.760;2022-07-25T08:50:19;7.38;;;2.03;;
27383;SDS011;14851;51.166;4.760;2022-07-25T08:52:49;7.30;;;2.63;;
27383;SDS011;14851;51.166;4.760;2022-07-25T08:55:17;6.55;;;2.65;;
27383;SDS011;14851;51.166;4.760;2022-07-25T08:57:47;6.40;;;2.60;;
27383;SDS011;14851;51.166;4.760;2022-07-25T09:00:16;10.98;;;1.98;;
27383;SDS011;14851;51.166;4.760;2022-07-25T09:02:52;7.55;;;2.78;;
27383;SDS011;14851;51.166;4.760;2022-07-25T09:05:26;7.18;;;1.77;;
27383;SDS011;14851;51.166;4.760;2022-07-25T09:07:55;6.05;;;2.03;;
27383;SDS011;14851;51.166;4.760;2022-07-25T09:10:23;7.57;;;2.58;;
27383;SDS011;14851;51.166;4.760;2022-07-25T09:15:25;7.40;;;2.10;;
27383;SDS011;14851;51.166;4.760;2022-07-25T09:17:54;8.63;;;2.38;;
27383;SDS011;14851;51.166;4.760;2022-07-25T09:20:24;4.10;;;1.95;;
27383;SDS011;14851;51.166;4.760;2022-07-25T09:23:06;6.55;;;1.90;;
27383;SDS011;14851;51.166;4.760;2022-07-25T09:25:32;4.72;;;2.40;;
27383;SDS011;14851;51.166;4.760;2022-07-25T09:28:17;5.07;;;2.10;;
27383;SDS011;14851;51.166;4.760;2022-07-25T09:30:54;8.65;;;2.05;;
27383;SDS011;14851;51.166;4.760;2022-07-25T09:33:23;5.25;;;1.85;;
27383;SDS011;14851;51.166;4.760;2022-07-25T09:35:50;6.82;;;1.80;;
27383;SDS011;14851;51.166;4.760;2022-07-25T09:38:17;5.25;;;1.58;;
27383;SDS011;14851;51.166;4.760;2022-07-25T09:40:54;5.10;;;1.77;;
27383;SDS011;14851;51.166;4.760;2022-07-25T09:43:34;5.35;;;1.45;;
27383;SDS011;14851;51.166;4.760;2022-07-25T09:46:04;2.42;;;1.23;;
27383;SDS011;14851;51.166;4.760;2022-07-25T09:51:00;4.28;;;1.10;;
27383;SDS011;14851;51.166;4.760;2022-07-25T09:53:27;2.50;;;1.27;;
27383;SDS011;14851;51.166;4.760;2022-07-25T09:55:54;4.75;;;1.15;;
27383;SDS011;14851;51.166;4.760;2022-07-25T09:58:22;4.80;;;1.67;;
27383;SDS011;14851;51.166;4.760;2022-07-25T10:00:53;5.70;;;1.67;;
27383;SDS011;14851;51.166;4.760;2022-07-25T10:03:50;4.30;;;1.58;;
27383;SDS011;14851;51.166;4.760;2022-07-25T10:06:27;4.35;;;1.92;;
27383;SDS011;14851;51.166;4.760;2022-07-25T10:09:10;4.50;;;2.00;;
27383;SDS011;14851;51.166;4.760;2022-07-25T10:11:37;5.35;;;1.80;;
27383;SDS011;14851;51.166;4.760;2022-07-25T10:14:10;4.80;;;2.15;;
27383;SDS011;14851;51.166;4.760;2022-07-25T10:16:47;4.18;;;1.77;;
27383;SDS011;14851;51.166;4.760;2022-07-25T10:19:13;5.88;;;1.65;;
27383;SDS011;14851;51.166;4.760;2022-07-25T10:22:01;4.32;;;1.80;;
27383;SDS011;14851;51.166;4.760;2022-07-25T10:24:32;4.45;;;1.60;;
27383;SDS011;14851;51.166;4.760;2022-07-25T10:27:04;2.83;;;1.60;;
27383;SDS011;14851;51.166;4.760;2022-07-25T10:29:37;4.40;;;1.52;;
27383;SDS011;14851;51.166;4.760;2022-07-25T10:32:08;4.50;;;1.60;;
27383;SDS011;14851;51.166;4.760;2022-07-25T10:34:36;3.10;;;1.10;;
27383;SDS011;14851;51.166;4.760;2022-07-25T10:37:16;7.80;;;1.70;;
27383;SDS011;14851;51.166;4.760;2022-07-25T10:39:43;5.50;;;1.45;;
27383;SDS011;14851;51.166;4.760;2022-07-25T10:42:14;6.35;;;1.60;;
27383;SDS011;14851;51.166;4.760;2022-07-25T10:44:42;3.40;;;1.20;;
27383;SDS011;14851;51.166;4.760;2022-07-25T10:47:11;3.75;;;1.80;;
27383;SDS011;14851;51.166;4.760;2022-07-25T10:49:42;5.25;;;1.92;;
27383;SDS011;14851;51.166;4.760;2022-07-25T10:52:17;6.57;;;1.73;;
27383;SDS011;14851;51.166;4.760;2022-07-25T10:54:52;4.03;;;1.50;;
27383;SDS011;14851;51.166;4.760;2022-07-25T10:57:23;3.88;;;1.60;;
27383;SDS011;14851;51.166;4.760;2022-07-25T10:59:51;5.85;;;1.50;;
27383;SDS011;14851;51.166;4.760;2022-07-25T11:02:22;4.55;;;1.42;;
27383;SDS011;14851;51.166;4.760;2022-07-25T11:04:58;6.18;;;1.60;;
27383;SDS011;14851;51.166;4.760;2022-07-25T11:07:27;5.30;;;1.77;;
27383;SDS011;14851;51.166;4.760;2022-07-25T11:10:02;5.43;;;1.50;;
27383;SDS011;14851;51.166;4.760;2022-07-25T11:12:29;5.57;;;2.03;;
27383;SDS011;14851;51.166;4.760;2022-07-25T11:15:05;4.55;;;1.75;;
27383;SDS011;14851;51.166;4.760;2022-07-25T11:17:33;4.75;;;1.80;;
27383;SDS011;14851;51.166;4.760;2022-07-25T11:22:26;4.55;;;1.75;;
27383;SDS011;14851;51.166;4.760;2022-07-25T11:24:54;5.07;;;1.92;;
27383;SDS011;14851;51.166;4.760;2022-07-25T11:27:23;5.03;;;1.92;;
27383;SDS011;14851;51.166;4.760;2022-07-25T11:30:04;3.95;;;1.90;;
27383;SDS011;14851;51.166;4.760;2022-07-25T11:32:47;6.05;;;2.00;;
27383;SDS011;14851;51.166;4.760;2022-07-25T11:35:16;5.35;;;1.83;;
27383;SDS011;14851;51.166;4.760;2022-07-25T11:40:14;6.47;;;2.10;;
27383;SDS011;14851;51.166;4.760;2022-07-25T11:42:45;5.80;;;1.77;;
27383;SDS011;14851;51.166;4.760;2022-07-25T11:45:26;6.20;;;1.42;;
27383;SDS011;14851;51.166;4.760;2022-07-25T11:48:09;6.93;;;2.08;;
27383;SDS011;14851;51.166;4.760;2022-07-25T11:50:38;6.95;;;1.73;;
27383;SDS011;14851;51.166;4.760;2022-07-25T11:53:12;4.80;;;2.15;;
27383;SDS011;14851;51.166;4.760;2022-07-25T11:55:40;6.40;;;1.95;;
27383;SDS011;14851;51.166;4.760;2022-07-25T11:58:11;7.78;;;2.33;;
27383;SDS011;14851;51.166;4.760;2022-07-25T12:00:38;6.43;;;1.58;;
27383;SDS011;14851;51.166;4.760;2022-07-25T12:03:06;5.72;;;1.70;;
27383;SDS011;14851;51.166;4.760;2022-07-25T12:05:34;10.38;;;2.55;;
27383;SDS011;14851;51.166;4.760;2022-07-25T12:10:40;7.38;;;2.00;;
27383;SDS011;14851;51.166;4.760;2022-07-25T12:13:21;6.38;;;1.85;;
27383;SDS011;14851;51.166;4.760;2022-07-25T12:15:49;5.28;;;2.10;;
27383;SDS011;14851;51.166;4.760;2022-07-25T12:18:15;6.55;;;1.75;;
27383;SDS011;14851;51.166;4.760;2022-07-25T12:20:45;6.50;;;2.13;;
27383;SDS011;14851;51.166;4.760;2022-07-25T12:23:14;5.28;;;2.10;;
27383;SDS011;14851;51.166;4.760;2022-07-25T12:25:41;4.75;;;1.70;;
27383;SDS011;14851;51.166;4.760;2022-07-25T12:28:16;6.30;;;1.90;;
27383;SDS011;14851;51.166;4.760;2022-07-25T12:30:42;4.25;;;1.55;;
27383;SDS011;14851;51.166;4.760;2022-07-25T12:33:09;6.85;;;1.90;;
27383;SDS011;14851;51.166;4.760;2022-07-25T12:35:42;6.93;;;2.13;;
27383;SDS011;14851;51.166;4.760;2022-07-25T12:40:35;6.38;;;1.60;;
27383;SDS011;14851;51.166;4.760;2022-07-25T12:43:02;6.25;;;1.80;;
27383;SDS011;14851;51.166;4.760;2022-07-25T12:45:29;12.18;;;2.50;;
27383;SDS011;14851;51.166;4.760;2022-07-25T12:47:55;5.20;;;1.70;;
27383;SDS011;14851;51.166;4.760;2022-07-25T12:50:24;7.68;;;2.08;;
27383;SDS011;14851;51.166;4.760;2022-07-25T12:52:53;6.60;;;2.30;;
27383;SDS011;14851;51.166;4.760;2022-07-25T12:55:22;7.43;;;2.00;;
27383;SDS011;14851;51.166;4.760;2022-07-25T12:57:49;7.28;;;2.30;;
27383;SDS011;14851;51.166;4.760;2022-07-25T13:00:16;7.53;;;1.90;;
27383;SDS011;14851;51.166;4.760;2022-07-25T13:02:44;5.53;;;1.70;;
27383;SDS011;14851;51.166;4.760;2022-07-25T13:05:10;8.55;;;1.88;;
27383;SDS011;14851;51.166;4.760;2022-07-25T13:07:36;7.22;;;2.03;;
27383;SDS011;14851;51.166;4.760;2022-07-25T13:10:06;6.23;;;1.80;;
27383;SDS011;14851;51.166;4.760;2022-07-25T13:12:34;6.85;;;1.80;;
27383;SDS011;14851;51.166;4.760;2022-07-25T13:15:03;2.92;;;1.23;;
27383;SDS011;14851;51.166;4.760;2022-07-25T13:17:30;4.45;;;1.50;;
27383;SDS011;14851;51.166;4.760;2022-07-25T13:19:57;5.32;;;1.90;;
27383;SDS011;14851;51.166;4.760;2022-07-25T13:22:23;4.75;;;1.92;;
27383;SDS011;14851;51.166;4.760;2022-07-25T13:24:51;6.60;;;2.00;;
27383;SDS011;14851;51.166;4.760;2022-07-25T13:27:19;6.65;;;1.42;;
27383;SDS011;14851;51.166;4.760;2022-07-25T13:29:46;5.82;;;1.80;;
27383;SDS011;14851;51.166;4.760;2022-07-25T13:32:18;5.38;;;1.60;;
27383;SDS011;14851;51.166;4.760;2022-07-25T13:34:45;4.80;;;1.48;;
27383;SDS011;14851;51.166;4.760;2022-07-25T13:37:12;5.88;;;1.88;;
27383;SDS011;14851;51.166;4.760;2022-07-25T13:39:38;5.95;;;1.65;;
27383;SDS011;14851;51.166;4.760;2022-07-25T13:42:07;6.32;;;1.95;;
27383;SDS011;14851;51.166;4.760;2022-07-25T13:44:33;5.35;;;1.48;;
27383;SDS011;14851;51.166;4.760;2022-07-25T13:46:59;12.27;;;1.90;;
27383;SDS011;14851;51.166;4.760;2022-07-25T13:49:26;10.35;;;1.67;;
27383;SDS011;14851;51.166;4.760;2022-07-25T13:51:54;8.38;;;1.60;;
27383;SDS011;14851;51.166;4.760;2022-07-25T13:54:20;11.98;;;1.98;;
27383;SDS011;14851;51.166;4.760;2022-07-25T13:56:48;8.55;;;1.67;;
27383;SDS011;14851;51.166;4.760;2022-07-25T13:59:14;5.75;;;1.58;;
27383;SDS011;14851;51.166;4.760;2022-07-25T14:01:41;10.88;;;2.13;;
27383;SDS011;14851;51.166;4.760;2022-07-25T14:04:09;7.35;;;1.65;;
27383;SDS011;14851;51.166;4.760;2022-07-25T14:06:35;4.57;;;1.13;;
27383;SDS011;14851;51.166;4.760;2022-07-25T14:09:01;4.78;;;1.17;;
27383;SDS011;14851;51.166;4.760;2022-07-25T14:11:28;5.68;;;1.00;;
27383;SDS011;14851;51.166;4.760;2022-07-25T14:13:55;7.72;;;1.55;;
27383;SDS011;14851;51.166;4.760;2022-07-25T14:16:22;7.45;;;1.40;;
27383;SDS011;14851;51.166;4.760;2022-07-25T14:18:48;7.15;;;1.35;;
27383;SDS011;14851;51.166;4.760;2022-07-25T14:21:18;7.40;;;2.15;;
27383;SDS011;14851;51.166;4.760;2022-07-25T14:23:44;9.27;;;1.42;;
27383;SDS011;14851;51.166;4.760;2022-07-25T14:26:11;5.68;;;1.25;;
27383;SDS011;14851;51.166;4.760;2022-07-25T14:28:40;8.05;;;1.10;;
27383;SDS011;14851;51.166;4.760;2022-07-25T14:31:07;3.95;;;1.30;;
27383;SDS011;14851;51.166;4.760;2022-07-25T14:33:33;5.32;;;1.65;;
27383;SDS011;14851;51.166;4.760;2022-07-25T14:36:08;8.60;;;0.93;;
27383;SDS011;14851;51.166;4.760;2022-07-25T14:38:34;7.60;;;1.27;;
27383;SDS011;14851;51.166;4.760;2022-07-25T14:41:01;7.03;;;1.20;;
27383;SDS011;14851;51.166;4.760;2022-07-25T14:43:28;4.65;;;0.85;;
27383;SDS011;14851;51.166;4.760;2022-07-25T14:45:53;6.25;;;0.90;;
27383;SDS011;14851;51.166;4.760;2022-07-25T14:48:20;2.97;;;0.88;;
27383;SDS011;14851;51.166;4.760;2022-07-25T14:50:46;3.38;;;0.73;;
27383;SDS011;14851;51.166;4.760;2022-07-25T14:53:12;6.45;;;1.17;;
27383;SDS011;14851;51.166;4.760;2022-07-25T14:55:38;4.40;;;1.05;;
27383;SDS011;14851;51.166;4.760;2022-07-25T14:58:04;4.50;;;1.02;;
27383;SDS011;14851;51.166;4.760;2022-07-25T15:00:31;6.07;;;0.80;;
27383;SDS011;14851;51.166;4.760;2022-07-25T15:02:59;3.17;;;1.08;;
27383;SDS011;14851;51.166;4.760;2022-07-25T15:05:26;5.38;;;1.10;;
27383;SDS011;14851;51.166;4.760;2022-07-25T15:07:52;8.75;;;1.02;;
27383;SDS011;14851;51.166;4.760;2022-07-25T15:10:21;4.68;;;0.70;;
27383;SDS011;14851;51.166;4.760;2022-07-25T15:12:48;5.82;;;1.55;;
27383;SDS011;14851;51.166;4.760;2022-07-25T15:15:14;4.70;;;1.25;;